Historyczne dane pomiarowe

Dodano dane terminowe – wersja testowa.

Dane z okresu 1951-2019

Wersja bazy: 1.34 [2019-03-16, lista zmian], aktualizacja planowana na 2019-04-15

Dane meteo z obszaru Polski uzyskane na podstawie danych udostępnionych przez Instytut Meteorologii i Gospodarki Wodnej – Państwowy Instytut Badawczy.

 

Wybierz Datę:    

       

TemperaturaWilgotnośćWiatrCiśnienieOpadyŚniegCzas trwania zjawisk
 Stacja t tx tn tng RH VA  wxwx mslp ppp RRR   cm mm wxwxwxwxwxwxwx
1994-08-14 13.5 17.1 10.0 8.8-------- 25.1--- 0.0 5.0-------
1994-08-13 17.0 19.6 14.6 14.1-------- 5.9--- 0.0 1.3-------
1994-08-12 18.8 22.2 13.0 10.7-------- 0.0--- 0.0 11.2-------
1994-08-11 19.5 24.4 16.2 14.1-------- 0.0--- 0.0 6.7-------
1994-08-10 18.8 23.6 12.5 9.0-------- 0.0--- 0.0 11.7-------
1994-08-09 19.5 23.9 13.6 9.9-------- 0.0--- 0.0 9.8-------
1994-08-08 19.5 24.6 14.2 12.0-------- 0.0--- 0.0 13.5-------
1994-08-07 19.8 22.9 15.5 12.1-------- 0.0--- 0.0 11.1-------
1994-08-06 21.4 25.5 19.1 15.2-------- 0.0--- 0.0 8.1-------
1994-08-05 20.8 26.3 14.5 11.2-------- 0.0--- 0.0 13.6-------
1994-08-04 19.5 23.5 12.9 9.6-------- 0.0--- 0.0 13.8-------
1994-08-03 20.3 23.3 17.6 16.3-------- 0.0--- 0.0 10.2-------
1994-08-02 20.7 25.2 16.0 9.1-------- 0.0--- 0.0 4.5-------
1994-08-01 23.6 34.5 18.7 18.1-------- 0.0--- 0.0 10.9-------
1994-07-31 23.0 30.7 19.6 16.8-------- 0.0--- 0.0 5.8-------
1994-07-30 22.0 25.4 17.0 14.5-------- 0.0--- 0.0 6.8-------
1994-07-29 23.0 32.7 19.0 16.2-------- 0.0--- 0.0 8.3-------
1994-07-28 22.9 26.4 17.3 14.1-------- 0.0--- 0.0 13.0-------
1994-07-27 23.3 28.1 19.3 15.4-------- 0.0--- 0.0 11.5-------
1994-07-26 24.6 34.7 16.5 13.9-------- 0.0--- 0.0 8.3-------
1994-07-25 20.2 25.4 14.1 11.0-------- 0.0--- 0.0 13.6-------
1994-07-24 21.2 25.3 15.9 12.7-------- 0.0--- 0.0 13.9-------
1994-07-23 21.1 26.3 15.7 12.1-------- 0.0--- 0.0 11.1-------
1994-07-22 20.0 26.5 12.9 9.5-------- 0.0--- 0.0 12.6-------
1994-07-21 18.9 23.0 12.3 9.0-------- 0.0--- 0.0 14.9-------
1994-07-20 17.5 21.5 11.7 12.1-------- 0.0--- 0.0 14.7-------
1994-07-19 18.1 21.1 11.9 9.1-------- 0.0--- 0.0 14.8-------
1994-07-18 18.0 21.6 11.5 9.0-------- 0.0--- 0.0 14.4-------
1994-07-17 18.7 21.4 16.0 13.6-------- 0.0--- 0.0 7.3-------
1994-07-16 20.4 22.4 17.6 11.1-------- 0.0--- 0.0 9.7-------
1994-07-15 21.6 31.7 18.7 15.5-------- 23.7--- 0.0 6.2-------
1994-07-14 23.9 29.1 18.3 14.4-------- 0.0--- 0.0 8.2-------
1994-07-13 22.0 28.0 17.0 13.6-------- 0.0--- 0.0 11.3-------
1994-07-12 20.2 24.4 13.7 10.5-------- 0.0--- 0.0 14.5-------
1994-07-11 18.3 22.3 11.0 8.2-------- 0.0--- 0.0 14.6-------
1994-07-10 17.4 20.3 14.4 11.1-------- 0.0--- 0.0 14.4-------
1994-07-09 17.2 20.8 12.8 11.1-------- 0.0--- 0.0 11.0-------
1994-07-08 16.0 19.3 12.5 10.5-------- 0.0--- 0.0 7.2-------
1994-07-07 15.4 19.2 8.2 5.6-------- 0.0--- 0.0 12.7-------
1994-07-06 16.0 18.6 11.9 8.9-------- 0.0--- 0.0 13.6-------
1994-07-05 15.7 18.4 11.5 10.0-------- 0.0--- 0.0 9.9-------
1994-07-04 18.5 22.9 13.0 9.9-------- 0.0--- 0.0 14.9-------
1994-07-03 18.6 24.3 12.1 8.2-------- 0.0--- 0.0 14.8-------
1994-07-02 15.9 21.3 8.6 5.7-------- 0.0--- 0.0 14.9-------
1994-07-01 15.1 17.5 13.8 12.1-------- 0.0--- 0.0 12.4-------
1994-06-30 16.8 20.5 14.4 13.6-------- 0.0--- 0.0 12.5-------
1994-06-29 22.1 33.0 14.4 12.1-------- 2.6--- 0.0 7.6-------
1994-06-28 18.0 20.8 13.4 11.0-------- 0.0--- 0.0 14.0-------
1994-06-27 17.8 20.5 14.9 11.0-------- 0.0--- 0.0 3.7-------
1994-06-26 18.6 27.4 13.0 11.9-------- 0.0--- 0.0 12.5-------
1994-06-25 17.1 25.7 5.8 2.8-------- 0.0--- 0.0 15.4-------
1994-06-24 12.8 15.2 10.9 10.3-------- 0.0--- 0.0 12.4-------
1994-06-23 13.8 16.3 11.0 10.0-------- 0.0--- 0.0 9.3-------
1994-06-22 16.3 20.1 13.9 13.7-------- 1.5--- 0.0 1.1-------
1994-06-21 15.6 21.5 8.6 5.1-------- 2.9--- 0.0 8.6-------
1994-06-20 13.6 15.4 11.0 9.2-------- 0.0--- 0.0 13.7-------
1994-06-19 13.7 16.0 10.9 9.8-------- 2.7--- 0.0 0.0-------
1994-06-18 12.5 17.3 6.7 4.1-------- 11.3--- 0.0 1.0-------
1994-06-17 12.1 14.1 9.8 7.6-------- 0.0--- 0.0 14.2-------
1994-06-16 11.7 14.1 9.1 7.6-------- 0.1--- 0.0 8.8-------
380.3 ms

 

Źródłem pochodzenia danych jest Instytut Meteorologii i Gospodarki Wodnej – Państwowy Instytut Badawczy. Dane Instytutu Meteorologii i Gospodarki Wodnej – Państwowego Instytutu Badawczego zostały przetworzone.

Dane źródłowe można odnaleźć na stronie https://dane.imgw.pl